sensor_id;sensor_type;location;lat;lon;timestamp;pressure;altitude;pressure_sealevel;temperature;humidity
18436;BME280;9346;52.006;4.720;2023-04-12T00:01:42;100316.97;;;9.54;100.00
18436;BME280;9346;52.006;4.720;2023-04-12T00:04:09;100305.44;;;9.52;100.00
18436;BME280;9346;52.006;4.720;2023-04-12T00:06:38;100297.75;;;9.49;100.00
18436;BME280;9346;52.006;4.720;2023-04-12T00:09:05;100289.78;;;9.47;100.00
18436;BME280;9346;52.006;4.720;2023-04-12T00:11:33;100274.41;;;9.46;100.00
18436;BME280;9346;52.006;4.720;2023-04-12T00:14:00;100266.72;;;9.43;100.00
18436;BME280;9346;52.006;4.720;2023-04-12T00:16:29;100251.31;;;9.42;100.00
18436;BME280;9346;52.006;4.720;2023-04-12T00:18:56;100259.81;;;9.41;100.00
18436;BME280;9346;52.006;4.720;2023-04-12T00:21:23;100250.50;;;9.42;100.00
18436;BME280;9346;52.006;4.720;2023-04-12T00:23:53;100243.34;;;9.41;100.00
18436;BME280;9346;52.006;4.720;2023-04-12T00:26:19;100233.22;;;9.36;100.00
18436;BME280;9346;52.006;4.720;2023-04-12T00:28:47;100230.75;;;9.35;100.00
18436;BME280;9346;52.006;4.720;2023-04-12T00:31:14;100230.47;;;9.36;100.00
18436;BME280;9346;52.006;4.720;2023-04-12T00:33:42;100209.03;;;9.33;100.00
18436;BME280;9346;52.006;4.720;2023-04-12T00:36:10;100198.84;;;9.34;100.00
18436;BME280;9346;52.006;4.720;2023-04-12T00:38:37;100189.25;;;9.31;100.00
18436;BME280;9346;52.006;4.720;2023-04-12T00:41:05;100174.94;;;9.29;100.00
18436;BME280;9346;52.006;4.720;2023-04-12T00:43:32;100163.44;;;9.27;100.00
18436;BME280;9346;52.006;4.720;2023-04-12T00:46:00;100166.19;;;9.27;100.00
18436;BME280;9346;52.006;4.720;2023-04-12T00:48:28;100161.50;;;9.28;100.00
18436;BME280;9346;52.006;4.720;2023-04-12T00:50:57;100166.19;;;9.27;100.00
18436;BME280;9346;52.006;4.720;2023-04-12T00:53:25;100155.75;;;9.24;100.00
18436;BME280;9346;52.006;4.720;2023-04-12T00:55:52;100129.38;;;9.23;100.00
18436;BME280;9346;52.006;4.720;2023-04-12T00:58:21;100129.38;;;9.23;100.00
18436;BME280;9346;52.006;4.720;2023-04-12T01:00:48;100116.44;;;9.24;100.00
18436;BME280;9346;52.006;4.720;2023-04-12T01:03:17;100108.75;;;9.26;100.00
18436;BME280;9346;52.006;4.720;2023-04-12T01:05:53;100111.78;;;9.24;100.00
18436;BME280;9346;52.006;4.720;2023-04-12T01:08:36;100104.34;;;9.25;100.00
18436;BME280;9346;52.006;4.720;2023-04-12T01:11:08;100092.56;;;9.19;100.00
18436;BME280;9346;52.006;4.720;2023-04-12T01:13:40;100074.44;;;9.18;100.00
18436;BME280;9346;52.006;4.720;2023-04-12T01:16:14;100084.09;;;9.16;100.00
18436;BME280;9346;52.006;4.720;2023-04-12T01:18:45;100081.06;;;9.17;100.00
18436;BME280;9346;52.006;4.720;2023-04-12T01:21:21;100067.31;;;9.17;100.00
18436;BME280;9346;52.006;4.720;2023-04-12T01:24:00;100063.47;;;9.18;100.00
18436;BME280;9346;52.006;4.720;2023-04-12T01:26:41;100057.13;;;9.18;100.00
18436;BME280;9346;52.006;4.720;2023-04-12T01:29:13;100048.88;;;9.18;100.00
18436;BME280;9346;52.006;4.720;2023-04-12T01:31:45;100038.72;;;9.18;100.00
18436;BME280;9346;52.006;4.720;2023-04-12T01:34:14;100028.84;;;9.17;100.00
18436;BME280;9346;52.006;4.720;2023-04-12T01:36:43;100019.22;;;9.14;100.00
18436;BME280;9346;52.006;4.720;2023-04-12T01:39:13;100020.34;;;9.13;100.00
18436;BME280;9346;52.006;4.720;2023-04-12T01:41:41;100012.13;;;9.13;100.00
18436;BME280;9346;52.006;4.720;2023-04-12T01:44:13;100012.13;;;9.13;100.00
18436;BME280;9346;52.006;4.720;2023-04-12T01:46:41;99990.97;;;9.14;100.00
18436;BME280;9346;52.006;4.720;2023-04-12T01:49:09;99987.38;;;9.13;100.00
18436;BME280;9346;52.006;4.720;2023-04-12T01:51:47;99973.66;;;9.13;100.00
18436;BME280;9346;52.006;4.720;2023-04-12T01:54:18;99966.53;;;9.13;100.00
18436;BME280;9346;52.006;4.720;2023-04-12T01:56:52;99965.47;;;9.08;100.00
18436;BME280;9346;52.006;4.720;2023-04-12T01:59:26;99956.91;;;9.10;100.00
18436;BME280;9346;52.006;4.720;2023-04-12T02:01:54;99949.22;;;9.12;100.00
18436;BME280;9346;52.006;4.720;2023-04-12T02:04:22;99948.38;;;9.11;100.00
18436;BME280;9346;52.006;4.720;2023-04-12T02:06:52;99930.25;;;9.10;100.00
18436;BME280;9346;52.006;4.720;2023-04-12T02:09:19;99933.56;;;9.13;100.00
18436;BME280;9346;52.006;4.720;2023-04-12T02:11:46;99932.72;;;9.12;100.00
18436;BME280;9346;52.006;4.720;2023-04-12T02:14:14;99918.72;;;9.13;100.00
18436;BME280;9346;52.006;4.720;2023-04-12T02:16:42;99911.88;;;9.11;100.00
18436;BME280;9346;52.006;4.720;2023-04-12T02:19:10;99904.97;;;9.13;100.00
18436;BME280;9346;52.006;4.720;2023-04-12T02:21:41;99906.38;;;9.11;100.00
18436;BME280;9346;52.006;4.720;2023-04-12T02:24:08;99895.09;;;9.13;100.00
18436;BME280;9346;52.006;4.720;2023-04-12T02:26:35;99897.56;;;9.14;100.00
18436;BME280;9346;52.006;4.720;2023-04-12T02:29:03;99895.59;;;9.14;100.00
18436;BME280;9346;52.006;4.720;2023-04-12T02:31:32;99892.88;;;9.14;100.00
18436;BME280;9346;52.006;4.720;2023-04-12T02:34:02;99874.75;;;9.13;100.00
18436;BME280;9346;52.006;4.720;2023-04-12T02:36:29;99873.13;;;9.13;100.00
18436;BME280;9346;52.006;4.720;2023-04-12T02:38:56;99868.72;;;9.11;100.00
18436;BME280;9346;52.006;4.720;2023-04-12T02:41:23;99858.28;;;9.13;100.00
18436;BME280;9346;52.006;4.720;2023-04-12T02:43:50;99851.38;;;9.16;100.00
18436;BME280;9346;52.006;4.720;2023-04-12T02:46:19;99842.63;;;9.14;100.00
18436;BME280;9346;52.006;4.720;2023-04-12T02:48:46;99846.16;;;9.14;100.00
18436;BME280;9346;52.006;4.720;2023-04-12T02:51:15;99850.03;;;9.13;100.00
18436;BME280;9346;52.006;4.720;2023-04-12T02:53:42;99848.09;;;9.14;100.00
18436;BME280;9346;52.006;4.720;2023-04-12T02:56:09;99834.66;;;9.13;100.00
18436;BME280;9346;52.006;4.720;2023-04-12T02:58:38;99829.97;;;9.13;100.00
18436;BME280;9346;52.006;4.720;2023-04-12T03:01:05;99818.97;;;9.13;100.00
18436;BME280;9346;52.006;4.720;2023-04-12T03:03:33;99826.41;;;9.13;100.00
18436;BME280;9346;52.006;4.720;2023-04-12T03:06:01;99817.06;;;9.13;100.00
18436;BME280;9346;52.006;4.720;2023-04-12T03:08:29;99811.03;;;9.11;100.00
18436;BME280;9346;52.006;4.720;2023-04-12T03:10:56;99798.94;;;9.13;100.00
18436;BME280;9346;52.006;4.720;2023-04-12T03:13:23;99795.38;;;9.12;100.00
18436;BME280;9346;52.006;4.720;2023-04-12T03:15:54;99793.47;;;9.13;100.00
18436;BME280;9346;52.006;4.720;2023-04-12T03:18:21;99794.53;;;9.11;100.00
18436;BME280;9346;52.006;4.720;2023-04-12T03:20:48;99789.03;;;9.11;100.00
18436;BME280;9346;52.006;4.720;2023-04-12T03:23:16;99780.53;;;9.13;100.00
18436;BME280;9346;52.006;4.720;2023-04-12T03:25:45;99771.47;;;9.13;100.00
18436;BME280;9346;52.006;4.720;2023-04-12T03:28:12;99771.47;;;9.13;100.00
18436;BME280;9346;52.006;4.720;2023-04-12T03:30:39;99769.03;;;9.11;100.00
18436;BME280;9346;52.006;4.720;2023-04-12T03:33:06;99769.03;;;9.11;100.00
18436;BME280;9346;52.006;4.720;2023-04-12T03:35:33;99779.72;;;9.13;100.00
18436;BME280;9346;52.006;4.720;2023-04-12T03:37:59;99759.66;;;9.12;100.00
18436;BME280;9346;52.006;4.720;2023-04-12T03:40:26;99754.72;;;9.14;100.00
18436;BME280;9346;52.006;4.720;2023-04-12T03:42:55;99743.44;;;9.16;100.00
18436;BME280;9346;52.006;4.720;2023-04-12T03:45:22;99739.03;;;9.14;100.00
18436;BME280;9346;52.006;4.720;2023-04-12T03:47:49;99731.91;;;9.13;100.00
18436;BME280;9346;52.006;4.720;2023-04-12T03:50:16;99722.53;;;9.14;100.00
18436;BME280;9346;52.006;4.720;2023-04-12T03:52:44;99717.88;;;9.15;100.00
18436;BME280;9346;52.006;4.720;2023-04-12T03:55:10;99720.03;;;9.18;100.00
18436;BME280;9346;52.006;4.720;2023-04-12T03:57:37;99720.88;;;9.19;100.00
18436;BME280;9346;52.006;4.720;2023-04-12T04:00:08;99701.63;;;9.19;100.00
18436;BME280;9346;52.006;4.720;2023-04-12T04:02:35;99697.22;;;9.18;100.00
18436;BME280;9346;52.006;4.720;2023-04-12T04:05:03;99690.66;;;9.19;100.00
18436;BME280;9346;52.006;4.720;2023-04-12T04:07:30;99692.56;;;9.18;100.00
18436;BME280;9346;52.006;4.720;2023-04-12T04:09:57;99692.28;;;9.20;100.00
18436;BME280;9346;52.006;4.720;2023-04-12T04:12:24;99704.38;;;9.19;100.00
18436;BME280;9346;52.006;4.720;2023-04-12T04:14:52;99715.88;;;9.21;100.00
18436;BME280;9346;52.006;4.720;2023-04-12T04:17:21;99706.84;;;9.20;100.00
18436;BME280;9346;52.006;4.720;2023-04-12T04:19:48;99708.75;;;9.20;100.00
18436;BME280;9346;52.006;4.720;2023-04-12T04:22:15;99695.03;;;9.20;100.00
18436;BME280;9346;52.006;4.720;2023-04-12T04:24:45;99696.94;;;9.19;100.00
18436;BME280;9346;52.006;4.720;2023-04-12T04:27:14;99698.59;;;9.20;100.00
18436;BME280;9346;52.006;4.720;2023-04-12T04:29:41;99709.59;;;9.20;100.00
18436;BME280;9346;52.006;4.720;2023-04-12T04:32:09;99709.81;;;9.24;100.00
18436;BME280;9346;52.006;4.720;2023-04-12T04:34:39;99704.25;;;9.29;100.00
18436;BME280;9346;52.006;4.720;2023-04-12T04:37:05;99690.53;;;9.29;100.00
18436;BME280;9346;52.006;4.720;2023-04-12T04:39:32;99698.22;;;9.27;100.00
18436;BME280;9346;52.006;4.720;2023-04-12T04:41:59;99702.31;;;9.29;100.00
18436;BME280;9346;52.006;4.720;2023-04-12T04:44:26;99707.00;;;9.29;100.00
18436;BME280;9346;52.006;4.720;2023-04-12T04:46:53;99704.78;;;9.31;100.00
18436;BME280;9346;52.006;4.720;2023-04-12T04:49:20;99700.94;;;9.32;100.00
18436;BME280;9346;52.006;4.720;2023-04-12T04:51:49;99712.22;;;9.30;100.00
18436;BME280;9346;52.006;4.720;2023-04-12T04:54:16;99720.47;;;9.30;100.00
18436;BME280;9346;52.006;4.720;2023-04-12T04:56:42;99719.88;;;9.33;100.00
18436;BME280;9346;52.006;4.720;2023-04-12T04:59:10;99723.97;;;9.36;100.00
18436;BME280;9346;52.006;4.720;2023-04-12T05:01:36;99729.66;;;9.39;100.00
18436;BME280;9346;52.006;4.720;2023-04-12T05:04:05;99730.00;;;9.38;100.00
18436;BME280;9346;52.006;4.720;2023-04-12T05:06:32;99719.50;;;9.40;100.00
18436;BME280;9346;52.006;4.720;2023-04-12T05:09:00;99717.00;;;9.43;100.00
18436;BME280;9346;52.006;4.720;2023-04-12T05:11:28;99718.94;;;9.43;100.00
18436;BME280;9346;52.006;4.720;2023-04-12T05:13:55;99717.50;;;9.45;100.00
18436;BME280;9346;52.006;4.720;2023-04-12T05:16:22;99715.59;;;9.46;100.00
18436;BME280;9346;52.006;4.720;2023-04-12T05:18:49;99714.47;;;9.47;100.00
18436;BME280;9346;52.006;4.720;2023-04-12T05:21:16;99725.72;;;9.50;100.00
18436;BME280;9346;52.006;4.720;2023-04-12T05:23:44;99718.78;;;9.53;100.00
18436;BME280;9346;52.006;4.720;2023-04-12T05:26:14;99713.31;;;9.53;100.00
18436;BME280;9346;52.006;4.720;2023-04-12T05:28:41;99701.72;;;9.56;100.00
18436;BME280;9346;52.006;4.720;2023-04-12T05:31:09;99707.47;;;9.59;100.00
18436;BME280;9346;52.006;4.720;2023-04-12T05:33:36;99704.91;;;9.63;100.00
18436;BME280;9346;52.006;4.720;2023-04-12T05:36:03;99703.53;;;9.65;100.00
18436;BME280;9346;52.006;4.720;2023-04-12T05:38:30;99700.50;;;9.67;100.00
18436;BME280;9346;52.006;4.720;2023-04-12T05:40:57;99702.91;;;9.68;100.00
18436;BME280;9346;52.006;4.720;2023-04-12T05:43:31;99708.34;;;9.73;100.00
18436;BME280;9346;52.006;4.720;2023-04-12T05:45:58;99709.69;;;9.76;100.00
18436;BME280;9346;52.006;4.720;2023-04-12T05:48:25;99706.66;;;9.77;100.00
18436;BME280;9346;52.006;4.720;2023-04-12T05:50:53;99729.19;;;9.79;100.00
18436;BME280;9346;52.006;4.720;2023-04-12T05:53:20;99719.81;;;9.80;100.00
18436;BME280;9346;52.006;4.720;2023-04-12T05:55:50;99720.03;;;9.84;100.00
18436;BME280;9346;52.006;4.720;2023-04-12T05:58:18;99717.50;;;9.87;100.00
18436;BME280;9346;52.006;4.720;2023-04-12T06:00:46;99708.16;;;9.88;100.00
18436;BME280;9346;52.006;4.720;2023-04-12T06:03:13;99706.44;;;9.92;100.00
18436;BME280;9346;52.006;4.720;2023-04-12T06:05:40;99708.91;;;9.94;100.00
18436;BME280;9346;52.006;4.720;2023-04-12T06:08:07;99717.69;;;9.96;100.00
18436;BME280;9346;52.006;4.720;2023-04-12T06:10:37;99717.88;;;9.99;100.00
18436;BME280;9346;52.006;4.720;2023-04-12T06:13:03;99718.72;;;10.00;100.00
18436;BME280;9346;52.006;4.720;2023-04-12T06:15:30;99714.31;;;9.99;100.00
18436;BME280;9346;52.006;4.720;2023-04-12T06:17:59;99713.50;;;9.98;100.00
18436;BME280;9346;52.006;4.720;2023-04-12T06:20:26;99703.00;;;10.00;100.00
18436;BME280;9346;52.006;4.720;2023-04-12T06:22:55;99716.75;;;10.00;100.00
18436;BME280;9346;52.006;4.720;2023-04-12T06:25:22;99710.66;;;10.03;100.00
18436;BME280;9346;52.006;4.720;2023-04-12T06:27:50;99701.63;;;10.03;100.00
18436;BME280;9346;52.006;4.720;2023-04-12T06:30:17;99706.00;;;10.04;100.00
18436;BME280;9346;52.006;4.720;2023-04-12T06:32:47;99699.38;;;10.05;100.00
18436;BME280;9346;52.006;4.720;2023-04-12T06:35:16;99705.97;;;10.09;100.00
18436;BME280;9346;52.006;4.720;2023-04-12T06:37:44;99703.13;;;10.14;100.00
18436;BME280;9346;52.006;4.720;2023-04-12T06:40:11;99709.16;;;10.16;100.00
18436;BME280;9346;52.006;4.720;2023-04-12T06:42:38;99707.19;;;10.16;100.00
18436;BME280;9346;52.006;4.720;2023-04-12T06:45:06;99698.22;;;10.11;100.00
18436;BME280;9346;52.006;4.720;2023-04-12T06:47:33;99702.09;;;10.10;100.00
18436;BME280;9346;52.006;4.720;2023-04-12T06:50:00;99703.41;;;10.12;100.00
18436;BME280;9346;52.006;4.720;2023-04-12T06:52:28;99700.47;;;10.09;100.00
18436;BME280;9346;52.006;4.720;2023-04-12T06:54:55;99701.03;;;10.06;100.00
18436;BME280;9346;52.006;4.720;2023-04-12T06:57:22;99710.38;;;10.05;100.00
18436;BME280;9346;52.006;4.720;2023-04-12T06:59:50;99707.63;;;10.05;100.00
18436;BME280;9346;52.006;4.720;2023-04-12T07:02:17;99704.59;;;10.06;100.00
18436;BME280;9346;52.006;4.720;2023-04-12T07:04:43;99708.19;;;10.07;100.00
18436;BME280;9346;52.006;4.720;2023-04-12T07:07:11;99704.00;;;10.09;100.00
18436;BME280;9346;52.006;4.720;2023-04-12T07:09:40;99698.75;;;10.13;100.00
18436;BME280;9346;52.006;4.720;2023-04-12T07:12:07;99696.78;;;10.13;100.00
18436;BME280;9346;52.006;4.720;2023-04-12T07:14:34;99697.84;;;10.17;100.00
18436;BME280;9346;52.006;4.720;2023-04-12T07:17:01;99700.81;;;10.21;100.00
18436;BME280;9346;52.006;4.720;2023-04-12T07:19:28;99700.75;;;10.26;100.00
18436;BME280;9346;52.006;4.720;2023-04-12T07:21:55;99695.53;;;10.24;100.00
18436;BME280;9346;52.006;4.720;2023-04-12T07:24:22;99689.19;;;10.24;100.00
18436;BME280;9346;52.006;4.720;2023-04-12T07:26:53;99680.66;;;10.25;100.00
18436;BME280;9346;52.006;4.720;2023-04-12T07:29:20;99686.09;;;10.30;100.00
18436;BME280;9346;52.006;4.720;2023-04-12T07:31:47;99673.03;;;10.36;100.00
18436;BME280;9346;52.006;4.720;2023-04-12T07:34:14;99669.41;;;10.40;100.00
18436;BME280;9346;52.006;4.720;2023-04-12T07:36:41;99666.03;;;10.43;100.00
18436;BME280;9346;52.006;4.720;2023-04-12T07:39:09;99659.09;;;10.46;100.00
18436;BME280;9346;52.006;4.720;2023-04-12T07:41:36;99651.97;;;10.45;100.00
18436;BME280;9346;52.006;4.720;2023-04-12T07:44:05;99638.22;;;10.45;100.00
18436;BME280;9346;52.006;4.720;2023-04-12T07:46:32;99632.09;;;10.48;100.00
18436;BME280;9346;52.006;4.720;2023-04-12T07:48:59;99635.78;;;10.57;100.00
18436;BME280;9346;52.006;4.720;2023-04-12T07:51:26;99638.69;;;10.65;100.00
18436;BME280;9346;52.006;4.720;2023-04-12T07:53:52;99633.88;;;10.71;100.00
18436;BME280;9346;52.006;4.720;2023-04-12T07:56:19;99633.78;;;10.76;100.00
18436;BME280;9346;52.006;4.720;2023-04-12T07:58:46;99633.91;;;10.84;100.00
18436;BME280;9346;52.006;4.720;2023-04-12T08:01:15;99632.78;;;10.85;100.00
18436;BME280;9346;52.006;4.720;2023-04-12T08:03:42;99633.78;;;10.89;100.00
18436;BME280;9346;52.006;4.720;2023-04-12T08:06:09;99629.13;;;10.90;100.00
18436;BME280;9346;52.006;4.720;2023-04-12T08:08:36;99621.88;;;10.94;100.00
18436;BME280;9346;52.006;4.720;2023-04-12T08:11:03;99620.13;;;10.98;100.00
18436;BME280;9346;52.006;4.720;2023-04-12T08:13:30;99622.47;;;11.04;100.00
18436;BME280;9346;52.006;4.720;2023-04-12T08:15:57;99622.06;;;11.11;100.00
18436;BME280;9346;52.006;4.720;2023-04-12T08:18:26;99624.13;;;11.19;100.00
18436;BME280;9346;52.006;4.720;2023-04-12T08:20:53;99626.25;;;11.22;100.00
18436;BME280;9346;52.006;4.720;2023-04-12T08:23:21;99623.19;;;11.23;100.00
18436;BME280;9346;52.006;4.720;2023-04-12T08:25:48;99624.19;;;11.27;100.00
18436;BME280;9346;52.006;4.720;2023-04-12T08:28:15;99618.88;;;11.31;100.00
18436;BME280;9346;52.006;4.720;2023-04-12T08:30:42;99613.88;;;11.33;100.00
18436;BME280;9346;52.006;4.720;2023-04-12T08:33:09;99612.13;;;11.37;100.00
18436;BME280;9346;52.006;4.720;2023-04-12T08:35:38;99621.94;;;11.43;100.00
18436;BME280;9346;52.006;4.720;2023-04-12T08:38:05;99616.63;;;11.47;100.00
18436;BME280;9346;52.006;4.720;2023-04-12T08:40:32;99613.88;;;11.47;100.00
18436;BME280;9346;52.006;4.720;2023-04-12T08:43:00;99620.69;;;11.49;100.00
18436;BME280;9346;52.006;4.720;2023-04-12T08:45:28;99610.66;;;11.53;100.00
18436;BME280;9346;52.006;4.720;2023-04-12T08:47:58;99609.25;;;11.56;100.00
18436;BME280;9346;52.006;4.720;2023-04-12T08:50:28;99610.06;;;11.56;100.00
18436;BME280;9346;52.006;4.720;2023-04-12T08:52:57;99612.72;;;11.61;100.00
18436;BME280;9346;52.006;4.720;2023-04-12T08:55:24;99613.94;;;11.69;100.00
18436;BME280;9346;52.006;4.720;2023-04-12T08:57:53;99607.47;;;11.73;100.00
18436;BME280;9346;52.006;4.720;2023-04-12T09:00:21;99615.03;;;11.81;100.00
18436;BME280;9346;52.006;4.720;2023-04-12T09:02:48;99611.50;;;11.89;100.00
18436;BME280;9346;52.006;4.720;2023-04-12T09:05:15;99602.13;;;11.90;100.00
18436;BME280;9346;52.006;4.720;2023-04-12T09:07:42;99604.25;;;11.93;100.00
18436;BME280;9346;52.006;4.720;2023-04-12T09:10:29;99613.44;;;12.02;100.00
18436;BME280;9346;52.006;4.720;2023-04-12T09:12:56;99608.09;;;12.06;100.00
18436;BME280;9346;52.006;4.720;2023-04-12T09:15:24;99605.84;;;12.08;100.00
18436;BME280;9346;52.006;4.720;2023-04-12T09:18:03;99597.41;;;12.13;100.00
18436;BME280;9346;52.006;4.720;2023-04-12T09:20:30;99601.69;;;12.19;100.00
18436;BME280;9346;52.006;4.720;2023-04-12T09:22:57;99594.72;;;12.21;100.00
18436;BME280;9346;52.006;4.720;2023-04-12T09:25:38;99602.88;;;12.26;100.00
18436;BME280;9346;52.006;4.720;2023-04-12T09:28:18;99599.66;;;12.33;100.00
18436;BME280;9346;52.006;4.720;2023-04-12T09:30:45;99601.16;;;12.39;100.00
18436;BME280;9346;52.006;4.720;2023-04-12T09:33:16;99602.34;;;12.46;100.00
18436;BME280;9346;52.006;4.720;2023-04-12T09:35:43;99592.28;;;12.50;100.00
18436;BME280;9346;52.006;4.720;2023-04-12T09:38:10;99591.34;;;12.55;100.00
18436;BME280;9346;52.006;4.720;2023-04-12T09:40:39;99593.66;;;12.61;100.00
18436;BME280;9346;52.006;4.720;2023-04-12T09:43:06;99594.66;;;12.65;100.00
18436;BME280;9346;52.006;4.720;2023-04-12T09:45:35;99597.28;;;12.70;100.00
18436;BME280;9346;52.006;4.720;2023-04-12T09:48:04;99591.44;;;12.72;100.00
18436;BME280;9346;52.006;4.720;2023-04-12T09:50:32;99582.34;;;12.71;100.00
18436;BME280;9346;52.006;4.720;2023-04-12T09:53:02;99584.16;;;12.76;100.00
18436;BME280;9346;52.006;4.720;2023-04-12T09:55:30;99581.09;;;12.86;100.00
18436;BME280;9346;52.006;4.720;2023-04-12T09:58:02;99588.56;;;12.85;100.00
18436;BME280;9346;52.006;4.720;2023-04-12T10:00:30;99586.00;;;12.89;100.00
18436;BME280;9346;52.006;4.720;2023-04-12T10:02:58;99588.91;;;12.92;100.00
18436;BME280;9346;52.006;4.720;2023-04-12T10:05:26;99598.84;;;12.93;100.00
18436;BME280;9346;52.006;4.720;2023-04-12T10:07:53;99593.66;;;12.92;100.00
18436;BME280;9346;52.006;4.720;2023-04-12T10:10:21;99592.81;;;12.91;100.00
18436;BME280;9346;52.006;4.720;2023-04-12T10:12:48;99588.13;;;12.92;100.00
18436;BME280;9346;52.006;4.720;2023-04-12T10:15:17;99590.72;;;12.97;100.00
18436;BME280;9346;52.006;4.720;2023-04-12T10:17:47;99587.97;;;12.97;100.00
18436;BME280;9346;52.006;4.720;2023-04-12T10:20:16;99587.16;;;12.96;100.00
18436;BME280;9346;52.006;4.720;2023-04-12T10:22:44;99600.97;;;12.96;100.00
18436;BME280;9346;52.006;4.720;2023-04-12T10:25:13;99587.97;;;12.97;100.00
18436;BME280;9346;52.006;4.720;2023-04-12T10:27:41;99592.38;;;12.98;100.00
18436;BME280;9346;52.006;4.720;2023-04-12T10:30:24;99591.94;;;13.04;100.00
18436;BME280;9346;52.006;4.720;2023-04-12T10:33:10;99589.69;;;13.15;100.00
18436;BME280;9346;52.006;4.720;2023-04-12T10:35:55;99589.56;;;13.28;100.00
18436;BME280;9346;52.006;4.720;2023-04-12T10:38:23;99586.31;;;13.35;100.00
18436;BME280;9346;52.006;4.720;2023-04-12T10:41:22;99586.50;;;13.38;100.00
18436;BME280;9346;52.006;4.720;2023-04-12T10:43:50;99594.16;;;13.41;100.00
18436;BME280;9346;52.006;4.720;2023-04-12T10:46:49;99596.28;;;13.44;100.00
18436;BME280;9346;52.006;4.720;2023-04-12T10:49:17;99594.16;;;13.50;100.00
18436;BME280;9346;52.006;4.720;2023-04-12T10:52:12;99591.72;;;13.48;100.00
18436;BME280;9346;52.006;4.720;2023-04-12T10:54:40;99594.31;;;13.45;100.00
18436;BME280;9346;52.006;4.720;2023-04-12T10:57:44;99589.59;;;13.37;100.00
18436;BME280;9346;52.006;4.720;2023-04-12T11:00:14;99590.22;;;13.34;100.00
18436;BME280;9346;52.006;4.720;2023-04-12T11:03:04;99599.31;;;13.34;100.00
18436;BME280;9346;52.006;4.720;2023-04-12T11:05:58;99598.22;;;13.44;100.00
18436;BME280;9346;52.006;4.720;2023-04-12T11:08:27;99598.41;;;13.48;100.00
18436;BME280;9346;52.006;4.720;2023-04-12T11:10:59;99606.84;;;13.60;100.00
18436;BME280;9346;52.006;4.720;2023-04-12T11:13:33;99594.81;;;13.64;100.00
18436;BME280;9346;52.006;4.720;2023-04-12T11:16:02;99601.31;;;13.60;100.00
18436;BME280;9346;52.006;4.720;2023-04-12T11:18:29;99603.28;;;13.59;100.00
18436;BME280;9346;52.006;4.720;2023-04-12T11:20:58;99612.91;;;13.62;100.00
18436;BME280;9346;52.006;4.720;2023-04-12T11:23:26;99616.63;;;13.66;100.00
18436;BME280;9346;52.006;4.720;2023-04-12T11:25:53;99606.72;;;13.65;100.00
18436;BME280;9346;52.006;4.720;2023-04-12T11:28:20;99619.72;;;13.56;100.00
18436;BME280;9346;52.006;4.720;2023-04-12T11:30:51;99614.66;;;13.49;100.00
18436;BME280;9346;52.006;4.720;2023-04-12T11:33:32;99602.91;;;13.43;100.00
18436;BME280;9346;52.006;4.720;2023-04-12T11:36:02;99616.94;;;13.38;100.00
18436;BME280;9346;52.006;4.720;2023-04-12T11:38:30;99609.41;;;13.39;100.00
18436;BME280;9346;52.006;4.720;2023-04-12T11:40:57;99621.00;;;13.41;100.00
18436;BME280;9346;52.006;4.720;2023-04-12T11:43:24;99625.06;;;13.43;100.00
18436;BME280;9346;52.006;4.720;2023-04-12T11:45:56;99625.72;;;13.49;100.00
18436;BME280;9346;52.006;4.720;2023-04-12T11:48:24;99626.72;;;13.53;100.00
18436;BME280;9346;52.006;4.720;2023-04-12T11:50:51;99630.59;;;13.52;100.00
18436;BME280;9346;52.006;4.720;2023-04-12T11:53:18;99627.69;;;13.48;100.00
18436;BME280;9346;52.006;4.720;2023-04-12T11:55:48;99626.06;;;13.48;100.00
18436;BME280;9346;52.006;4.720;2023-04-12T11:58:16;99632.06;;;13.49;100.00
18436;BME280;9346;52.006;4.720;2023-04-12T12:00:44;99629.94;;;13.55;100.00
18436;BME280;9346;52.006;4.720;2023-04-12T12:03:13;99631.59;;;13.56;100.00
18436;BME280;9346;52.006;4.720;2023-04-12T12:05:40;99642.19;;;13.63;100.00
18436;BME280;9346;52.006;4.720;2023-04-12T12:08:08;99632.72;;;13.64;100.00
18436;BME280;9346;52.006;4.720;2023-04-12T12:10:36;99641.38;;;13.62;100.00
18436;BME280;9346;52.006;4.720;2023-04-12T12:13:08;99646.22;;;13.57;100.00
18436;BME280;9346;52.006;4.720;2023-04-12T12:15:35;99648.69;;;13.58;100.00
18436;BME280;9346;52.006;4.720;2023-04-12T12:18:06;99647.88;;;13.58;99.89
18436;BME280;9346;52.006;4.720;2023-04-12T12:20:40;99655.03;;;13.59;98.59
18436;BME280;9346;52.006;4.720;2023-04-12T12:23:07;99650.81;;;13.61;100.00
18436;BME280;9346;52.006;4.720;2023-04-12T12:25:34;99646.75;;;13.59;100.00
18436;BME280;9346;52.006;4.720;2023-04-12T12:28:01;99659.41;;;13.51;99.72
18436;BME280;9346;52.006;4.720;2023-04-12T12:30:29;99673.72;;;13.44;100.00
18436;BME280;9346;52.006;4.720;2023-04-12T12:32:56;99671.72;;;13.36;100.00
18436;BME280;9346;52.006;4.720;2023-04-12T12:35:24;99672.22;;;13.30;100.00
18436;BME280;9346;52.006;4.720;2023-04-12T12:37:53;99667.41;;;13.13;100.00
18436;BME280;9346;52.006;4.720;2023-04-12T12:40:30;99675.19;;;12.81;100.00
18436;BME280;9346;52.006;4.720;2023-04-12T12:42:57;99658.34;;;12.60;100.00
18436;BME280;9346;52.006;4.720;2023-04-12T12:45:25;99665.97;;;12.63;100.00
18436;BME280;9346;52.006;4.720;2023-04-12T12:47:54;99659.19;;;12.69;100.00
18436;BME280;9346;52.006;4.720;2023-04-12T12:50:23;99665.16;;;12.85;100.00
18436;BME280;9346;52.006;4.720;2023-04-12T12:52:53;99653.16;;;12.89;100.00
18436;BME280;9346;52.006;4.720;2023-04-12T12:55:21;99652.00;;;12.90;100.00
18436;BME280;9346;52.006;4.720;2023-04-12T12:57:51;99642.25;;;12.93;100.00
18436;BME280;9346;52.006;4.720;2023-04-12T13:00:20;99645.47;;;12.86;100.00
18436;BME280;9346;52.006;4.720;2023-04-12T13:02:47;99644.00;;;12.80;100.00
18436;BME280;9346;52.006;4.720;2023-04-12T13:05:15;99637.00;;;12.83;100.00
18436;BME280;9346;52.006;4.720;2023-04-12T13:07:42;99637.78;;;12.75;100.00
18436;BME280;9346;52.006;4.720;2023-04-12T13:10:11;99642.84;;;12.81;100.00
18436;BME280;9346;52.006;4.720;2023-04-12T13:12:39;99633.78;;;12.89;100.00
18436;BME280;9346;52.006;4.720;2023-04-12T13:15:06;99627.59;;;12.92;100.00